createdAt,value
2023-04-28T00:04:51.036Z,18.5
2023-04-28T00:09:52.917Z,18.5
2023-04-28T00:14:54.419Z,18.6
2023-04-28T00:19:55.937Z,18.6
2023-04-28T00:24:57.479Z,18.6
2023-04-28T00:29:58.987Z,18.6
2023-04-28T00:35:00.502Z,18.7
2023-04-28T00:40:02.086Z,18.7
2023-04-28T00:45:03.622Z,18.8
2023-04-28T00:50:05.175Z,18.8
2023-04-28T00:55:06.696Z,18.8
2023-04-28T01:00:08.260Z,18.9
2023-04-28T01:05:09.808Z,18.9
2023-04-28T01:10:11.338Z,18.9
2023-04-28T01:15:12.868Z,18.9
2023-04-28T01:20:14.445Z,18.9
2023-04-28T01:25:16.033Z,19
2023-04-28T01:30:17.544Z,19.1
2023-04-28T01:35:19.048Z,19.1
2023-04-28T01:40:20.737Z,19.1
2023-04-28T01:45:22.256Z,19.1
2023-04-28T01:50:23.791Z,19.1
2023-04-28T01:55:25.347Z,19.2
2023-04-28T02:00:26.924Z,19.2
2023-04-28T02:05:28.431Z,19.3
2023-04-28T02:10:30.018Z,19.3
2023-04-28T02:15:31.564Z,19.3
2023-04-28T02:20:33.435Z,19.3
2023-04-28T02:25:35.106Z,19.3
2023-04-28T02:30:36.809Z,19.4
2023-04-28T02:35:38.323Z,19.4
2023-04-28T02:40:39.902Z,19.4
2023-04-28T02:45:41.453Z,19.4
2023-04-28T02:50:42.978Z,19.4
2023-04-28T02:55:44.549Z,19.5
2023-04-28T03:00:46.085Z,19.5
2023-04-28T03:05:47.709Z,19.6
2023-04-28T03:10:49.304Z,19.6
2023-04-28T03:15:50.919Z,19.6
2023-04-28T03:20:52.560Z,19.6
2023-04-28T03:25:54.150Z,19.6
2023-04-28T03:30:55.706Z,19.7
2023-04-28T03:35:57.237Z,19.7
2023-04-28T03:40:58.816Z,19.7
2023-04-28T03:46:00.336Z,19.8
2023-04-28T03:51:01.950Z,19.8
2023-04-28T03:56:03.522Z,19.8
2023-04-28T04:01:05.095Z,19.8
2023-04-28T04:06:06.671Z,19.8
2023-04-28T04:11:08.687Z,19.9
2023-04-28T04:16:10.224Z,19.9
2023-04-28T04:21:11.800Z,19.9
2023-04-28T04:26:13.350Z,19.9
2023-04-28T04:31:14.920Z,19.9
2023-04-28T04:36:16.510Z,19.9
2023-04-28T04:41:18.121Z,19.9
2023-04-28T04:46:19.756Z,20
2023-04-28T04:51:21.428Z,20
2023-04-28T04:56:23.037Z,20.1
2023-04-28T05:01:24.686Z,20.1
2023-04-28T05:06:26.382Z,20.1
2023-04-28T05:11:28.043Z,20
2023-04-28T05:16:29.739Z,20
2023-04-28T05:21:31.449Z,20.1
2023-04-28T05:26:33.095Z,20.1
2023-04-28T05:31:34.787Z,20.1
2023-04-28T05:36:37.456Z,20.1
2023-04-28T05:41:39.165Z,20.1
2023-04-28T05:46:40.837Z,20.1
2023-04-28T05:51:42.485Z,20.2
2023-04-28T05:56:44.212Z,20.2
2023-04-28T06:01:45.072Z,20.2
2023-04-28T06:06:46.720Z,20.3
2023-04-28T06:11:48.351Z,20.3
2023-04-28T06:16:50.020Z,20.3
2023-04-28T06:21:50.884Z,20.3
2023-04-28T06:26:52.563Z,20.3
2023-04-28T06:31:54.686Z,20.2
2023-04-28T06:36:56.287Z,20.2
2023-04-28T06:41:57.948Z,20.3
2023-04-28T06:46:59.735Z,20.3
2023-04-28T06:52:00.686Z,20.3
2023-04-28T06:57:02.362Z,20.3
2023-04-28T07:02:04.018Z,20.3
2023-04-28T07:07:05.688Z,20.3
2023-04-28T07:12:07.336Z,20.3
2023-04-28T07:17:09.064Z,20.3
2023-04-28T07:22:10.716Z,20.4
2023-04-28T07:27:12.342Z,20.4
2023-04-28T07:32:14.380Z,20.4
2023-04-28T07:37:17.213Z,20.4
2023-04-28T07:42:18.884Z,20.4
2023-04-28T07:47:20.572Z,20.4
2023-04-28T07:52:22.212Z,20.4
2023-04-28T07:57:23.993Z,20.4
2023-04-28T08:02:25.824Z,20.4
2023-04-28T08:07:27.606Z,20.4
2023-04-28T08:12:29.399Z,20.4
2023-04-28T08:17:31.030Z,20.5
2023-04-28T08:22:32.675Z,20.5
2023-04-28T08:27:34.372Z,20.5
2023-04-28T08:32:36.014Z,20.5
2023-04-28T08:37:37.683Z,20.6
2023-04-28T08:42:39.385Z,20.6
2023-04-28T08:47:41.020Z,20.6
2023-04-28T08:52:42.818Z,20.6
2023-04-28T08:57:44.658Z,20.6
2023-04-28T09:02:46.454Z,20.6
2023-04-28T09:07:48.173Z,20.6
2023-04-28T09:12:50.055Z,20.6
2023-04-28T09:17:51.724Z,20.6
2023-04-28T09:22:53.363Z,20.7
2023-04-28T09:27:55.071Z,20.7
2023-04-28T09:33:07.061Z,20.6
2023-04-28T09:38:09.846Z,20.7
2023-04-28T09:43:21.160Z,20.7
2023-04-28T09:48:22.450Z,20.7
2023-04-28T09:53:24.184Z,20.7
2023-04-28T09:58:28.141Z,20.8
2023-04-28T10:03:30.333Z,20.8
2023-04-28T10:08:32.215Z,20.8
2023-04-28T10:13:33.910Z,20.8
2023-04-28T10:18:36.619Z,20.8
2023-04-28T10:23:38.294Z,20.8
2023-04-28T10:28:39.209Z,20.8
2023-04-28T10:33:40.675Z,20.8
2023-04-28T10:38:41.521Z,20.8
2023-04-28T10:43:43.188Z,20.8
2023-04-28T10:48:45.081Z,20.8
2023-04-28T10:53:47.662Z,20.9
2023-04-28T10:58:49.609Z,20.9
2023-04-28T11:03:51.922Z,20.9
2023-04-28T11:08:54.115Z,20.9
2023-04-28T11:13:55.011Z,20.9
2023-04-28T11:18:56.753Z,20.9
2023-04-28T11:23:58.518Z,20.9
2023-04-28T11:29:00.256Z,20.9
2023-04-28T11:34:01.886Z,20.9
2023-04-28T11:39:03.684Z,21
2023-04-28T11:44:05.449Z,21
2023-04-28T11:49:07.763Z,21
2023-04-28T11:54:09.489Z,21
2023-04-28T11:59:11.193Z,21
2023-04-28T12:04:13.501Z,21
2023-04-28T12:09:15.278Z,21.1
2023-04-28T12:14:16.105Z,21.1
2023-04-28T12:19:17.713Z,21.1
2023-04-28T12:24:19.268Z,21.1
2023-04-28T12:29:20.943Z,21.1
2023-04-28T12:34:22.511Z,21.1
2023-04-28T12:39:24.063Z,21.1
2023-04-28T12:44:25.685Z,21.1
2023-04-28T12:49:27.283Z,21.1
2023-04-28T12:54:28.063Z,21.1
2023-04-28T12:59:29.713Z,21.1
2023-04-28T13:04:31.576Z,21.1
2023-04-28T13:09:32.494Z,21.1
2023-04-28T13:14:34.119Z,21.2
2023-04-28T13:19:35.868Z,21.2
2023-04-28T13:24:37.643Z,21.2
2023-04-28T13:29:39.498Z,21.2
2023-04-28T13:34:41.260Z,21.2
2023-04-28T13:39:42.175Z,21.2
2023-04-28T13:44:43.969Z,21.2
2023-04-28T13:49:45.773Z,21.2
2023-04-28T13:54:47.959Z,21.2
2023-04-28T13:59:49.108Z,21.2
2023-04-28T14:04:51.254Z,21.2
2023-04-28T14:09:53.326Z,21.2
2023-04-28T14:14:54.997Z,21.2
2023-04-28T14:19:56.600Z,21.2
2023-04-28T14:24:58.254Z,21.3
2023-04-28T14:29:59.939Z,21.3
2023-04-28T14:35:01.616Z,21.3
2023-04-28T14:40:03.281Z,21.3
2023-04-28T14:45:04.949Z,21.3
2023-04-28T14:50:06.682Z,21.3
2023-04-28T14:55:08.458Z,21.3
2023-04-28T15:00:10.265Z,21.4
2023-04-28T15:05:12.175Z,21.4
2023-04-28T15:10:13.988Z,21.4
2023-04-28T15:15:15.789Z,21.4
2023-04-28T15:20:17.631Z,21.4
2023-04-28T15:25:19.251Z,21.4
2023-04-28T15:30:20.195Z,21.4
2023-04-28T15:35:21.939Z,21.4
2023-04-28T15:40:23.665Z,21.4
2023-04-28T15:45:24.506Z,21.4
2023-04-28T15:50:26.100Z,21.4
2023-04-28T15:55:27.721Z,21.4
2023-04-28T16:00:29.516Z,21.4
2023-04-28T16:05:31.302Z,21.4
2023-04-28T16:10:33.112Z,24.1
2023-04-28T16:15:34.999Z,27.9
2023-04-28T16:20:37.150Z,30.8
2023-04-28T16:25:37.663Z,33.6
2023-04-28T16:30:38.541Z,36.6
2023-04-28T16:35:39.316Z,39.5
2023-04-28T16:40:40.699Z,42.4
2023-04-28T16:45:41.377Z,43.7
2023-04-28T16:50:42.142Z,43.8
2023-04-28T16:55:42.774Z,43.9
2023-04-28T17:00:43.590Z,44.8
2023-04-28T17:05:44.330Z,44.9
2023-04-28T17:10:44.967Z,44.9
2023-04-28T17:15:45.630Z,44.9
2023-04-28T17:20:46.325Z,44.9
2023-04-28T17:25:46.959Z,44.8
2023-04-28T17:30:47.964Z,44.6
2023-04-28T17:35:49.517Z,44.4
2023-04-28T17:40:50.203Z,44.4
2023-04-28T17:45:50.845Z,44.4
2023-04-28T17:50:51.454Z,44.3
2023-04-28T17:55:52.071Z,44.3
2023-04-28T18:00:52.735Z,44.2
2023-04-28T18:05:53.414Z,44.2
2023-04-28T18:10:54.024Z,44.2
2023-04-28T18:15:54.733Z,44.1
2023-04-28T18:20:55.416Z,44.1
2023-04-28T18:25:56.023Z,44.1
2023-04-28T18:30:57.585Z,44
2023-04-28T18:35:58.280Z,44
2023-04-28T18:40:58.928Z,43.9
2023-04-28T18:46:00.453Z,43.9
2023-04-28T18:51:01.305Z,43.9
2023-04-28T18:56:06.010Z,43.8
2023-04-28T19:01:09.650Z,43.7
2023-04-28T19:06:10.902Z,43.7
2023-04-28T19:11:12.678Z,43.7
2023-04-28T19:16:14.376Z,43.6
2023-04-28T19:21:16.026Z,43.6
2023-04-28T19:26:16.737Z,43.6
2023-04-28T19:31:17.411Z,43.5
2023-04-28T19:36:18.218Z,43.4
2023-04-28T19:41:18.783Z,43.4
2023-04-28T19:46:19.555Z,43.4
2023-04-28T19:51:20.230Z,43.3
2023-04-28T19:56:20.834Z,43.3
2023-04-28T20:01:21.504Z,43.3
2023-04-28T20:06:22.972Z,43.2
2023-04-28T20:11:23.617Z,43.1
2023-04-28T20:16:24.290Z,43.1
2023-04-28T20:21:24.944Z,43.1
2023-04-28T20:26:25.533Z,43
2023-04-28T20:31:26.205Z,42.9
2023-04-28T20:36:27.906Z,42.7
2023-04-28T20:41:30.129Z,42.7
2023-04-28T20:46:30.787Z,42.7
2023-04-28T20:51:31.508Z,42.6
2023-04-28T20:56:32.119Z,42.4
2023-04-28T21:01:32.707Z,42.4
2023-04-28T21:06:33.281Z,42.4
2023-04-28T21:11:34.765Z,42.3
2023-04-28T21:16:35.370Z,42.2
2023-04-28T21:21:35.960Z,41.9
2023-04-28T21:26:37.397Z,41.8
2023-04-28T21:31:37.936Z,41.7
2023-04-28T21:36:38.506Z,41.7
2023-04-28T21:41:39.055Z,41.7
2023-04-28T21:46:39.590Z,41.6
2023-04-28T21:51:40.055Z,41.6
2023-04-28T21:56:40.564Z,41.5
2023-04-28T22:01:41.109Z,41.4
2023-04-28T22:06:41.666Z,41.4
2023-04-28T22:11:42.648Z,41.3
2023-04-28T22:16:43.145Z,41.3
2023-04-28T22:21:43.647Z,41.2
2023-04-28T22:26:44.116Z,41.2
2023-04-28T22:31:44.619Z,41.1
2023-04-28T22:36:45.191Z,41.1
2023-04-28T22:41:45.646Z,41
2023-04-28T22:46:46.141Z,40.9
2023-04-28T22:51:46.753Z,40.9
2023-04-28T22:56:47.311Z,40.9
2023-04-28T23:01:47.880Z,40.8
2023-04-28T23:06:48.494Z,40.8
2023-04-28T23:11:49.044Z,40.7
2023-04-28T23:16:49.721Z,40.6
2023-04-28T23:21:50.269Z,40.6
2023-04-28T23:26:50.867Z,40.6
2023-04-28T23:31:51.435Z,40.5
2023-04-28T23:36:52.058Z,40.4
2023-04-28T23:41:52.580Z,40.4
2023-04-28T23:46:54.222Z,40.4
2023-04-28T23:51:56.092Z,40.3
2023-04-28T23:56:56.793Z,40.2
